createdAt,value
2022-12-31T00:00:34.510Z,12.96
2022-12-31T00:03:02.501Z,12.91
2022-12-31T00:05:33.289Z,13.20
2022-12-31T00:08:01.572Z,12.98
2022-12-31T00:10:30.628Z,13.41
2022-12-31T00:12:58.399Z,13.29
2022-12-31T00:15:26.099Z,13.34
2022-12-31T00:17:53.855Z,13.42
2022-12-31T00:20:21.674Z,13.39
2022-12-31T00:22:50.958Z,13.72
2022-12-31T00:25:18.774Z,13.73
2022-12-31T00:27:46.624Z,13.74
2022-12-31T00:30:15.854Z,13.18
2022-12-31T00:32:43.695Z,13.64
2022-12-31T00:35:11.455Z,13.46
2022-12-31T00:37:39.171Z,13.26
2022-12-31T00:40:11.272Z,13.23
2022-12-31T00:42:39.028Z,13.23
2022-12-31T00:45:07.735Z,13.48
2022-12-31T00:47:35.834Z,13.67
2022-12-31T00:50:03.698Z,13.77
2022-12-31T00:52:31.445Z,13.45
2022-12-31T00:54:59.205Z,13.52
2022-12-31T00:57:28.450Z,13.62
2022-12-31T00:59:56.214Z,13.62
2022-12-31T01:02:24.103Z,13.67
2022-12-31T01:04:52.180Z,13.58
2022-12-31T01:07:19.935Z,13.60
2022-12-31T01:09:47.698Z,13.64
2022-12-31T01:12:15.466Z,13.63
2022-12-31T01:14:44.746Z,13.68
2022-12-31T01:17:13.428Z,13.72
2022-12-31T01:19:41.276Z,13.72
2022-12-31T01:22:09.028Z,14.02
2022-12-31T01:24:36.762Z,13.76
2022-12-31T01:27:04.717Z,13.72
2022-12-31T01:29:32.414Z,13.63
2022-12-31T01:32:01.587Z,13.54
2022-12-31T01:34:29.351Z,13.55
2022-12-31T01:36:57.124Z,13.48
2022-12-31T01:39:25.066Z,13.42
2022-12-31T01:41:52.857Z,13.53
2022-12-31T01:44:52.174Z,13.51
2022-12-31T01:47:31.872Z,13.37
2022-12-31T01:50:05.328Z,13.30
2022-12-31T01:52:35.689Z,13.33
2022-12-31T01:55:09.871Z,13.29
2022-12-31T01:57:38.543Z,13.25
2022-12-31T02:00:08.035Z,13.52
2022-12-31T02:02:38.282Z,13.53
2022-12-31T02:05:13.224Z,13.32
2022-12-31T02:07:41.194Z,13.43
2022-12-31T02:10:09.506Z,13.26
2022-12-31T02:12:37.305Z,13.27
2022-12-31T02:15:05.892Z,13.43
2022-12-31T02:17:40.185Z,13.32
2022-12-31T02:20:16.963Z,13.39
2022-12-31T02:23:09.096Z,13.55
2022-12-31T02:26:05.954Z,13.59
2022-12-31T02:28:57.052Z,13.86
2022-12-31T02:31:32.855Z,13.90
2022-12-31T02:34:09.396Z,14.06
2022-12-31T02:36:41.564Z,14.02
2022-12-31T02:39:12.740Z,13.81
2022-12-31T02:41:53.680Z,13.88
2022-12-31T02:44:26.841Z,14.05
2022-12-31T02:47:07.179Z,13.92
2022-12-31T02:49:43.510Z,13.90
2022-12-31T02:52:26.670Z,13.75
2022-12-31T02:55:03.433Z,13.94
2022-12-31T02:57:39.335Z,13.96
2022-12-31T03:00:26.912Z,13.96
2022-12-31T03:02:57.373Z,14.02
2022-12-31T03:05:29.384Z,14.06
2022-12-31T03:07:57.273Z,14.07
2022-12-31T03:10:25.123Z,13.97
2022-12-31T03:12:52.093Z,14.12
2022-12-31T03:15:22.221Z,14.20
2022-12-31T03:17:56.933Z,14.19
2022-12-31T03:20:45.015Z,14.24
2022-12-31T03:23:16.723Z,14.37
2022-12-31T03:25:43.703Z,14.21
2022-12-31T03:28:14.806Z,14.26
2022-12-31T03:30:45.168Z,14.15
2022-12-31T03:33:14.875Z,14.20
2022-12-31T03:35:49.546Z,14.25
2022-12-31T03:38:18.928Z,14.31
2022-12-31T03:40:49.418Z,14.13
2022-12-31T03:43:17.347Z,14.10
2022-12-31T03:45:45.161Z,14.32
2022-12-31T03:48:14.398Z,14.40
2022-12-31T03:50:42.199Z,13.79
2022-12-31T03:53:10.024Z,14.08
2022-12-31T03:55:37.973Z,14.23
2022-12-31T03:58:06.091Z,14.43
2022-12-31T04:00:34.036Z,14.28
2022-12-31T04:03:01.756Z,14.61
2022-12-31T04:05:31.259Z,14.46
2022-12-31T04:07:59.181Z,14.27
2022-12-31T04:10:27.000Z,14.45
2022-12-31T04:12:54.775Z,14.73
2022-12-31T04:15:22.873Z,14.55
2022-12-31T04:17:50.668Z,14.74
2022-12-31T04:20:20.860Z,14.28
2022-12-31T04:22:51.340Z,14.50
2022-12-31T04:25:19.117Z,14.26
2022-12-31T04:27:47.234Z,14.29
2022-12-31T04:30:15.943Z,14.40
2022-12-31T04:32:43.926Z,14.28
2022-12-31T04:35:13.096Z,14.31
2022-12-31T04:37:41.241Z,14.48
2022-12-31T04:40:11.156Z,14.55
2022-12-31T04:42:38.862Z,14.57
2022-12-31T04:45:07.992Z,14.46
2022-12-31T04:47:35.730Z,14.61
2022-12-31T04:50:05.452Z,14.72
2022-12-31T04:52:38.616Z,14.73
2022-12-31T04:55:12.221Z,14.82
2022-12-31T04:57:40.015Z,14.63
2022-12-31T05:00:09.404Z,14.75
2022-12-31T05:02:37.470Z,14.79
2022-12-31T05:05:05.860Z,14.74
2022-12-31T05:07:33.582Z,14.41
2022-12-31T05:10:01.332Z,14.60
2022-12-31T05:12:30.397Z,14.47
2022-12-31T05:14:58.128Z,14.57
2022-12-31T05:17:25.844Z,14.49
2022-12-31T05:19:53.587Z,14.67
2022-12-31T05:22:30.272Z,14.50
2022-12-31T05:24:58.891Z,14.49
2022-12-31T05:27:27.683Z,14.64
2022-12-31T05:29:56.762Z,14.70
2022-12-31T05:32:24.466Z,14.77
2022-12-31T05:34:53.594Z,14.95
2022-12-31T05:37:21.429Z,14.60
2022-12-31T05:39:49.125Z,14.78
2022-12-31T05:42:17.703Z,14.81
2022-12-31T05:44:45.460Z,14.70
2022-12-31T05:47:14.637Z,14.99
2022-12-31T05:49:42.437Z,14.96
2022-12-31T05:52:10.527Z,14.88
2022-12-31T05:54:38.382Z,15.21
2022-12-31T05:57:06.774Z,14.86
2022-12-31T05:59:35.271Z,14.98
2022-12-31T06:02:03.232Z,15.12
2022-12-31T06:04:32.752Z,15.22
2022-12-31T06:07:00.564Z,15.38
2022-12-31T06:09:28.409Z,15.05
2022-12-31T06:11:56.278Z,15.35
2022-12-31T06:14:24.185Z,15.45
2022-12-31T06:16:51.851Z,15.15
2022-12-31T06:19:19.609Z,15.43
2022-12-31T06:21:48.785Z,14.97
2022-12-31T06:24:16.598Z,14.92
2022-12-31T06:26:44.474Z,15.14
2022-12-31T06:29:15.430Z,15.34
2022-12-31T06:31:43.176Z,15.48
2022-12-31T06:34:12.469Z,15.56
2022-12-31T06:36:40.281Z,15.52
2022-12-31T06:39:09.680Z,15.59
2022-12-31T06:41:37.396Z,15.67
2022-12-31T06:44:05.593Z,15.57
2022-12-31T06:46:33.356Z,15.22
2022-12-31T06:49:01.068Z,15.22
2022-12-31T06:51:28.830Z,15.53
2022-12-31T06:53:56.551Z,15.58
2022-12-31T06:56:34.039Z,15.13
2022-12-31T06:59:03.612Z,15.45
2022-12-31T07:01:44.120Z,15.18
2022-12-31T07:04:37.206Z,15.22
2022-12-31T07:07:09.540Z,15.39
2022-12-31T07:09:46.511Z,14.99
2022-12-31T07:12:28.691Z,15.04
2022-12-31T07:15:03.269Z,15.14
2022-12-31T07:17:39.746Z,15.31
2022-12-31T07:20:11.531Z,15.40
2022-12-31T07:22:39.719Z,15.65
2022-12-31T07:25:08.604Z,15.43
2022-12-31T07:28:08.179Z,15.66
2022-12-31T07:30:43.036Z,15.57
2022-12-31T07:33:30.687Z,15.56
2022-12-31T07:36:12.306Z,15.97
2022-12-31T07:38:50.702Z,16.02
2022-12-31T07:41:40.818Z,15.54
2022-12-31T07:44:25.176Z,15.50
2022-12-31T07:46:56.885Z,15.80
2022-12-31T07:49:29.131Z,15.82
2022-12-31T07:51:58.181Z,15.84
2022-12-31T07:54:26.025Z,15.70
2022-12-31T07:56:53.896Z,15.91
2022-12-31T07:59:37.861Z,15.72
2022-12-31T08:02:14.407Z,15.52
2022-12-31T08:04:53.745Z,15.79
2022-12-31T08:07:33.460Z,15.77
2022-12-31T08:10:08.312Z,15.84
2022-12-31T08:12:42.000Z,15.92
2022-12-31T08:15:16.332Z,15.81
2022-12-31T08:17:44.905Z,15.86
2022-12-31T08:20:15.846Z,15.65
2022-12-31T08:23:00.607Z,15.82
2022-12-31T08:25:33.861Z,15.78
2022-12-31T08:28:08.004Z,15.60
2022-12-31T08:30:45.545Z,15.77
2022-12-31T08:33:20.796Z,15.79
2022-12-31T08:36:01.976Z,15.83
2022-12-31T08:38:38.845Z,15.70
2022-12-31T08:41:19.025Z,15.66
2022-12-31T08:43:57.072Z,15.95
2022-12-31T08:46:32.149Z,15.90
2022-12-31T08:49:01.723Z,15.77
2022-12-31T08:51:30.033Z,15.53
2022-12-31T08:53:58.508Z,15.71
2022-12-31T08:56:31.601Z,15.59
2022-12-31T08:59:20.002Z,15.65
2022-12-31T09:02:05.132Z,15.78
2022-12-31T09:04:47.610Z,15.90
2022-12-31T09:07:18.039Z,15.95
2022-12-31T09:09:57.519Z,16.19
2022-12-31T09:12:32.471Z,16.49
2022-12-31T09:15:04.917Z,16.37
2022-12-31T09:17:44.176Z,16.22
2022-12-31T09:20:25.353Z,16.53
2022-12-31T09:22:56.293Z,16.44
2022-12-31T09:25:25.738Z,16.62
2022-12-31T09:28:07.996Z,16.23
2022-12-31T09:30:43.342Z,16.43
2022-12-31T09:33:18.125Z,16.24
2022-12-31T09:35:53.213Z,16.41
2022-12-31T09:38:28.722Z,16.12
2022-12-31T09:41:16.516Z,16.50
2022-12-31T09:44:37.793Z,16.41
2022-12-31T09:47:30.727Z,16.59
2022-12-31T09:50:32.377Z,16.49
2022-12-31T09:53:19.841Z,16.89
2022-12-31T09:55:53.880Z,16.68
2022-12-31T09:58:29.018Z,16.97
2022-12-31T10:01:03.408Z,17.08
2022-12-31T10:03:44.693Z,17.18
2022-12-31T10:06:24.047Z,17.63
2022-12-31T10:09:22.198Z,17.36
2022-12-31T10:12:07.134Z,17.27
2022-12-31T10:14:47.672Z,17.49
2022-12-31T10:17:33.384Z,17.54
2022-12-31T10:20:28.250Z,17.46
2022-12-31T10:23:18.761Z,17.67
2022-12-31T10:26:12.702Z,17.77
2022-12-31T10:28:50.840Z,17.57
2022-12-31T10:31:37.299Z,17.64
2022-12-31T10:34:14.916Z,17.86
2022-12-31T10:36:55.270Z,17.83
2022-12-31T10:39:49.127Z,18.01
2022-12-31T10:42:46.917Z,18.02
2022-12-31T10:45:57.751Z,19.00
2022-12-31T10:49:00.173Z,17.87
2022-12-31T10:51:54.829Z,18.13
2022-12-31T10:54:36.804Z,18.34
2022-12-31T10:57:32.155Z,18.74
2022-12-31T11:00:18.326Z,18.60
2022-12-31T11:03:34.209Z,18.60
2022-12-31T11:06:56.051Z,18.49
2022-12-31T11:09:53.528Z,18.48
2022-12-31T11:12:48.023Z,18.68
2022-12-31T11:15:32.621Z,18.29
2022-12-31T11:18:12.979Z,18.08
2022-12-31T11:20:55.904Z,18.29
2022-12-31T11:23:35.869Z,18.30
2022-12-31T11:26:14.164Z,18.29
2022-12-31T11:29:08.391Z,18.50
2022-12-31T11:31:52.293Z,18.49
2022-12-31T11:34:52.663Z,18.67
2022-12-31T11:37:36.122Z,18.50
2022-12-31T11:40:20.485Z,18.53
2022-12-31T11:42:53.096Z,18.51
2022-12-31T11:45:45.704Z,18.56
2022-12-31T11:48:32.430Z,18.61
2022-12-31T11:51:16.140Z,18.62
2022-12-31T11:54:14.178Z,18.63
2022-12-31T11:56:45.170Z,18.52
2022-12-31T11:59:19.575Z,18.67
2022-12-31T12:01:57.616Z,18.60
2022-12-31T12:04:25.533Z,18.52
2022-12-31T12:06:54.263Z,18.82
2022-12-31T12:09:29.613Z,18.75
2022-12-31T12:12:02.547Z,18.51
2022-12-31T12:14:36.336Z,18.80
2022-12-31T12:17:10.284Z,18.80
2022-12-31T12:19:44.364Z,18.64
2022-12-31T12:22:12.912Z,18.77
2022-12-31T12:24:41.140Z,18.85
2022-12-31T12:27:23.051Z,18.88
2022-12-31T12:29:50.905Z,18.81
2022-12-31T12:32:21.780Z,18.79
2022-12-31T12:34:50.316Z,18.78
2022-12-31T12:37:29.839Z,18.73
2022-12-31T12:39:59.092Z,18.64
2022-12-31T12:42:26.865Z,18.57
2022-12-31T12:45:08.839Z,18.90
2022-12-31T12:47:38.116Z,18.70
2022-12-31T12:50:13.991Z,18.79
2022-12-31T12:52:59.694Z,18.68
2022-12-31T12:55:37.694Z,18.83
2022-12-31T12:58:19.660Z,18.69
2022-12-31T13:00:54.975Z,18.71
2022-12-31T13:04:33.683Z,18.73
2022-12-31T13:07:12.303Z,18.56
2022-12-31T13:09:55.023Z,18.57
2022-12-31T13:12:48.844Z,18.74
2022-12-31T13:15:28.928Z,18.62
2022-12-31T13:18:04.319Z,18.47
2022-12-31T13:20:39.914Z,18.68
2022-12-31T13:23:19.544Z,18.69
2022-12-31T13:25:59.798Z,18.81
2022-12-31T13:28:28.632Z,18.62
2022-12-31T13:31:06.571Z,18.74
2022-12-31T13:33:39.366Z,18.68
2022-12-31T13:36:11.218Z,18.47
2022-12-31T13:38:42.678Z,18.53
2022-12-31T13:41:14.690Z,18.47
2022-12-31T13:43:51.279Z,18.57
2022-12-31T13:46:25.471Z,18.70
2022-12-31T13:48:54.374Z,18.79
2022-12-31T13:51:35.056Z,18.99
2022-12-31T13:54:07.354Z,18.84
2022-12-31T13:56:38.916Z,19.09
2022-12-31T13:59:14.288Z,19.40
2022-12-31T14:01:46.514Z,18.88
2022-12-31T14:04:20.098Z,18.63
2022-12-31T14:06:54.622Z,18.37
2022-12-31T14:09:24.973Z,18.13
2022-12-31T14:12:10.181Z,18.03
2022-12-31T14:14:47.388Z,18.02
2022-12-31T14:17:24.639Z,18.05
2022-12-31T14:20:02.656Z,17.97
2022-12-31T14:22:40.799Z,17.82
2022-12-31T14:25:18.115Z,17.94
2022-12-31T14:27:48.326Z,17.92
2022-12-31T14:30:18.854Z,17.87
2022-12-31T14:33:02.712Z,18.05
2022-12-31T14:35:48.102Z,17.80
2022-12-31T14:38:33.394Z,17.80
2022-12-31T14:41:13.728Z,17.74
2022-12-31T14:43:51.503Z,17.91
2022-12-31T14:46:30.845Z,17.69
2022-12-31T14:49:14.486Z,17.91
2022-12-31T14:51:42.991Z,17.72
2022-12-31T14:54:29.101Z,17.90
2022-12-31T14:56:57.070Z,17.89
2022-12-31T14:59:27.800Z,17.89
2022-12-31T15:01:56.890Z,17.80
2022-12-31T15:04:33.629Z,17.51
2022-12-31T15:07:11.986Z,17.58
2022-12-31T15:09:57.101Z,17.46
2022-12-31T15:12:48.467Z,17.57
2022-12-31T15:15:35.998Z,17.63
2022-12-31T15:18:22.962Z,17.58
2022-12-31T15:21:10.343Z,17.39
2022-12-31T15:23:42.125Z,17.69
2022-12-31T15:26:23.594Z,17.33
2022-12-31T15:29:00.672Z,17.47
2022-12-31T15:31:29.419Z,17.19
2022-12-31T15:34:00.844Z,17.19
2022-12-31T15:36:30.918Z,17.28
2022-12-31T15:39:08.726Z,17.36
2022-12-31T15:42:10.281Z,17.17
2022-12-31T15:44:49.087Z,17.17
2022-12-31T15:47:21.961Z,17.38
2022-12-31T15:49:51.525Z,17.50
2022-12-31T15:52:24.975Z,17.17
2022-12-31T15:54:56.492Z,17.22
2022-12-31T15:57:35.092Z,17.36
2022-12-31T16:00:06.496Z,17.62
2022-12-31T16:02:34.435Z,17.40
2022-12-31T16:05:02.699Z,17.28
2022-12-31T16:07:30.609Z,17.14
2022-12-31T16:10:01.672Z,17.07
2022-12-31T16:12:42.491Z,16.95
2022-12-31T16:15:22.099Z,16.80
2022-12-31T16:18:04.924Z,16.66
2022-12-31T16:20:34.650Z,16.28
2022-12-31T16:23:04.299Z,16.46
2022-12-31T16:25:34.046Z,16.68
2022-12-31T16:28:04.818Z,16.19
2022-12-31T16:30:36.899Z,15.88
2022-12-31T16:33:06.899Z,15.94
2022-12-31T16:35:37.355Z,15.89
2022-12-31T16:38:13.472Z,15.91
2022-12-31T16:40:44.887Z,15.81
2022-12-31T16:43:37.416Z,15.84
2022-12-31T16:46:11.357Z,15.82
2022-12-31T16:48:39.440Z,15.94
2022-12-31T16:51:07.868Z,16.21
2022-12-31T16:53:38.829Z,16.11
2022-12-31T16:56:09.811Z,15.69
2022-12-31T16:58:42.051Z,15.81
2022-12-31T17:01:14.696Z,15.96
2022-12-31T17:03:46.290Z,15.88
2022-12-31T17:06:16.674Z,16.17
2022-12-31T17:08:46.515Z,16.24
2022-12-31T17:11:29.656Z,16.11
2022-12-31T17:14:06.997Z,16.24
2022-12-31T17:16:36.623Z,16.18
2022-12-31T17:19:05.327Z,16.36
2022-12-31T17:21:33.746Z,15.90
2022-12-31T17:24:04.408Z,16.03
2022-12-31T17:26:34.820Z,15.82
2022-12-31T17:29:06.041Z,16.06
2022-12-31T17:31:36.866Z,15.97
2022-12-31T17:34:30.484Z,16.21
2022-12-31T17:37:04.003Z,15.81
2022-12-31T17:40:17.006Z,15.69
2022-12-31T17:42:47.369Z,15.49
2022-12-31T17:45:21.603Z,15.55
2022-12-31T17:47:52.498Z,15.52
2022-12-31T17:50:21.997Z,15.28
2022-12-31T17:52:50.080Z,15.43
2022-12-31T17:55:18.109Z,15.57
2022-12-31T17:57:52.229Z,15.49
2022-12-31T18:00:22.328Z,15.80
2022-12-31T18:02:50.023Z,15.56
2022-12-31T18:05:20.436Z,15.68
2022-12-31T18:07:48.621Z,15.54
2022-12-31T18:10:18.874Z,15.56
2022-12-31T18:12:48.721Z,15.73
2022-12-31T18:15:18.170Z,15.57
2022-12-31T18:17:47.345Z,15.43
2022-12-31T18:20:15.719Z,15.24
2022-12-31T18:22:47.069Z,15.22
2022-12-31T18:25:19.780Z,15.35
2022-12-31T18:27:48.052Z,15.23
2022-12-31T18:30:16.512Z,15.14
2022-12-31T18:32:45.803Z,15.26
2022-12-31T18:35:40.636Z,15.13
2022-12-31T18:38:15.643Z,15.03
2022-12-31T18:40:46.652Z,15.05
2022-12-31T18:43:17.508Z,15.28
2022-12-31T18:45:45.851Z,15.23
2022-12-31T18:48:14.230Z,15.19
2022-12-31T18:50:43.961Z,15.09
2022-12-31T18:53:16.782Z,15.22
2022-12-31T18:55:47.953Z,15.22
2022-12-31T18:58:18.376Z,15.22
2022-12-31T19:00:47.057Z,15.19
2022-12-31T19:03:16.347Z,14.99
2022-12-31T19:05:49.573Z,15.30
2022-12-31T19:08:17.568Z,15.17
2022-12-31T19:10:45.509Z,15.03
2022-12-31T19:13:14.014Z,14.90
2022-12-31T19:15:43.864Z,14.99
2022-12-31T19:18:11.725Z,14.99
2022-12-31T19:20:41.083Z,14.99
2022-12-31T19:23:16.306Z,14.85
2022-12-31T19:25:44.230Z,14.56
2022-12-31T19:28:17.019Z,15.04
2022-12-31T19:30:45.408Z,14.76
2022-12-31T19:33:13.545Z,14.72
2022-12-31T19:35:42.042Z,14.83
2022-12-31T19:38:18.037Z,14.77
2022-12-31T19:40:46.276Z,14.64
2022-12-31T19:43:15.591Z,14.80
2022-12-31T19:45:44.551Z,14.80
2022-12-31T19:48:14.351Z,14.88
2022-12-31T19:50:44.179Z,14.81
2022-12-31T19:53:16.026Z,14.99
2022-12-31T19:55:44.203Z,14.69
2022-12-31T19:58:18.601Z,15.01
2022-12-31T20:00:54.602Z,14.71
2022-12-31T20:03:25.179Z,15.03
2022-12-31T20:06:01.161Z,14.70
2022-12-31T20:08:30.316Z,14.50
2022-12-31T20:10:58.908Z,14.62
2022-12-31T20:13:27.396Z,14.51
2022-12-31T20:15:55.171Z,14.53
2022-12-31T20:18:23.168Z,14.44
2022-12-31T20:20:55.766Z,14.50
2022-12-31T20:23:23.893Z,14.63
2022-12-31T20:25:59.084Z,14.47
2022-12-31T20:28:26.935Z,14.58
2022-12-31T20:30:54.943Z,14.54
2022-12-31T20:33:23.046Z,14.57
2022-12-31T20:35:51.175Z,14.79
2022-12-31T20:38:18.858Z,14.78
2022-12-31T20:40:47.238Z,14.51
2022-12-31T20:43:16.530Z,14.77
2022-12-31T20:45:44.791Z,14.82
2022-12-31T20:48:12.601Z,14.87
2022-12-31T20:50:40.431Z,14.72
2022-12-31T20:53:08.161Z,14.83
2022-12-31T20:55:38.516Z,14.83
2022-12-31T20:58:06.346Z,14.61
2022-12-31T21:00:35.427Z,14.61
2022-12-31T21:03:14.402Z,14.42
2022-12-31T21:05:52.029Z,14.40
2022-12-31T21:08:20.385Z,14.48
2022-12-31T21:10:49.095Z,13.92
2022-12-31T21:13:18.713Z,13.77
2022-12-31T21:15:50.082Z,13.90
2022-12-31T21:18:18.438Z,13.78
2022-12-31T21:20:47.934Z,13.76
2022-12-31T21:23:15.860Z,13.63
2022-12-31T21:25:44.846Z,13.96
2022-12-31T21:28:13.672Z,13.67
2022-12-31T21:30:42.033Z,13.95
2022-12-31T21:33:11.211Z,14.45
2022-12-31T21:35:46.926Z,14.30
2022-12-31T21:38:19.882Z,14.06
2022-12-31T21:40:47.686Z,14.38
2022-12-31T21:43:17.623Z,14.16
2022-12-31T21:45:45.546Z,13.89
2022-12-31T21:48:22.194Z,14.05
2022-12-31T21:50:51.826Z,13.82
2022-12-31T21:53:24.813Z,13.84
2022-12-31T21:56:09.708Z,13.76
2022-12-31T21:58:40.348Z,14.01
2022-12-31T22:01:26.464Z,13.88
2022-12-31T22:03:55.695Z,13.72
2022-12-31T22:06:25.149Z,13.97
2022-12-31T22:08:54.597Z,14.30
2022-12-31T22:11:25.015Z,14.13
2022-12-31T22:13:53.607Z,14.11
2022-12-31T22:16:22.234Z,14.32
2022-12-31T22:18:50.607Z,14.06
2022-12-31T22:21:21.447Z,13.89
2022-12-31T22:23:51.743Z,13.96
2022-12-31T22:26:21.644Z,13.94
2022-12-31T22:28:49.638Z,13.71
2022-12-31T22:31:19.616Z,13.81
2022-12-31T22:33:47.823Z,13.74
2022-12-31T22:36:18.743Z,14.18
2022-12-31T22:38:49.125Z,13.95
2022-12-31T22:41:19.303Z,13.78
2022-12-31T22:43:48.952Z,13.95
2022-12-31T22:46:18.193Z,13.76
2022-12-31T22:48:46.938Z,13.70
2022-12-31T22:51:15.669Z,13.86
2022-12-31T22:53:43.836Z,13.82
2022-12-31T22:56:14.608Z,13.81
2022-12-31T22:58:42.485Z,13.86
2022-12-31T23:01:17.408Z,14.01
2022-12-31T23:03:46.537Z,14.07
2022-12-31T23:06:14.738Z,13.99
2022-12-31T23:09:03.269Z,14.11
2022-12-31T23:11:36.436Z,14.10
2022-12-31T23:14:22.288Z,13.82
2022-12-31T23:17:30.188Z,14.14
2022-12-31T23:20:13.334Z,13.98
2022-12-31T23:22:58.524Z,13.91
2022-12-31T23:25:26.341Z,14.17
2022-12-31T23:27:55.515Z,14.05
2022-12-31T23:30:23.321Z,14.16
2022-12-31T23:32:51.053Z,14.09
2022-12-31T23:35:18.931Z,14.13
2022-12-31T23:37:46.723Z,14.06
2022-12-31T23:40:20.983Z,13.81
2022-12-31T23:42:49.620Z,13.76
2022-12-31T23:45:18.780Z,13.66
2022-12-31T23:47:46.643Z,13.58
2022-12-31T23:50:14.377Z,13.54
2022-12-31T23:52:42.224Z,13.40
2022-12-31T23:55:10.480Z,13.62
2022-12-31T23:57:38.458Z,13.61
